createdAt,value
2023-05-06T00:00:22.511Z,74.33
2023-05-06T00:03:10.517Z,73.87
2023-05-06T00:05:38.532Z,73.62
2023-05-06T00:08:06.738Z,73.33
2023-05-06T00:10:34.654Z,72.78
2023-05-06T00:13:02.641Z,72.44
2023-05-06T00:15:32.049Z,72.09
2023-05-06T00:18:01.305Z,71.77
2023-05-06T00:20:29.492Z,71.16
2023-05-06T00:22:57.802Z,70.88
2023-05-06T00:25:25.617Z,70.69
2023-05-06T00:27:54.001Z,70.21
2023-05-06T00:30:21.752Z,69.60
2023-05-06T00:32:49.806Z,69.55
2023-05-06T00:35:17.510Z,68.65
2023-05-06T00:37:58.737Z,68.50
2023-05-06T00:40:26.445Z,68.33
2023-05-06T00:42:54.392Z,67.91
2023-05-06T00:45:22.183Z,67.73
2023-05-06T00:47:50.276Z,67.33
2023-05-06T00:50:18.707Z,67.18
2023-05-06T00:52:47.370Z,66.87
2023-05-06T00:55:15.886Z,67.15
2023-05-06T00:57:44.325Z,66.83
2023-05-06T01:00:12.609Z,66.68
2023-05-06T01:02:46.961Z,66.68
2023-05-06T01:05:17.894Z,66.26
2023-05-06T01:08:11.613Z,66.27
2023-05-06T01:10:45.140Z,65.99
2023-05-06T01:13:30.885Z,66.38
2023-05-06T01:16:01.399Z,65.91
2023-05-06T01:18:32.594Z,65.70
2023-05-06T01:21:01.939Z,65.73
2023-05-06T01:23:30.162Z,65.50
2023-05-06T01:25:57.798Z,65.52
2023-05-06T01:28:25.880Z,65.55
2023-05-06T01:30:53.612Z,65.36
2023-05-06T01:33:32.809Z,65.40
2023-05-06T01:36:11.634Z,65.19
2023-05-06T01:38:51.672Z,65.33
2023-05-06T01:41:21.070Z,64.95
2023-05-06T01:43:52.828Z,64.64
2023-05-06T01:46:23.674Z,64.54
2023-05-06T01:48:55.223Z,64.75
2023-05-06T01:51:24.934Z,64.57
2023-05-06T01:53:53.004Z,64.54
2023-05-06T01:56:20.741Z,64.24
2023-05-06T01:58:48.768Z,64.86
2023-05-06T02:01:16.545Z,65.19
2023-05-06T02:03:44.546Z,65.08
2023-05-06T02:06:12.373Z,65.08
2023-05-06T02:08:43.477Z,65.77
2023-05-06T02:11:16.292Z,65.25
2023-05-06T02:13:44.423Z,65.42
2023-05-06T02:16:12.284Z,65.78
2023-05-06T02:18:41.480Z,65.44
2023-05-06T02:21:10.879Z,65.75
2023-05-06T02:23:38.862Z,65.92
2023-05-06T02:26:06.526Z,66.00
2023-05-06T02:28:34.411Z,65.60
2023-05-06T02:31:02.100Z,65.24
2023-05-06T02:33:30.124Z,65.52
2023-05-06T02:35:57.772Z,65.29
2023-05-06T02:38:25.830Z,65.53
2023-05-06T02:40:54.371Z,65.33
2023-05-06T02:43:23.251Z,65.31
2023-05-06T02:45:51.204Z,65.18
2023-05-06T02:48:20.160Z,65.47
2023-05-06T02:50:47.831Z,65.33
2023-05-06T02:53:15.905Z,65.26
2023-05-06T02:55:43.687Z,64.94
2023-05-06T02:58:11.611Z,65.44
2023-05-06T03:00:39.267Z,65.45
2023-05-06T03:03:07.346Z,64.68
2023-05-06T03:05:35.204Z,64.97
2023-05-06T03:08:03.208Z,64.56
2023-05-06T03:10:31.972Z,64.20
2023-05-06T03:13:02.022Z,63.79
2023-05-06T03:15:30.474Z,63.92
2023-05-06T03:17:58.451Z,63.86
2023-05-06T03:20:28.877Z,63.64
2023-05-06T03:22:59.650Z,63.38
2023-05-06T03:25:27.752Z,63.26
2023-05-06T03:27:56.921Z,63.15
2023-05-06T03:30:25.120Z,62.92
2023-05-06T03:32:57.176Z,62.71
2023-05-06T03:35:30.891Z,63.30
2023-05-06T03:38:00.785Z,62.68
2023-05-06T03:40:36.470Z,62.69
2023-05-06T03:43:04.972Z,62.64
2023-05-06T03:45:33.704Z,62.40
2023-05-06T03:48:04.236Z,61.94
2023-05-06T03:50:34.202Z,61.71
2023-05-06T03:53:02.216Z,61.72
2023-05-06T03:55:32.963Z,60.95
2023-05-06T03:58:02.005Z,60.87
2023-05-06T04:00:29.757Z,60.73
2023-05-06T04:02:57.901Z,60.52
2023-05-06T04:05:36.567Z,60.30
2023-05-06T04:08:05.371Z,60.07
2023-05-06T04:10:33.056Z,60.27
2023-05-06T04:13:07.714Z,60.56
2023-05-06T04:15:41.625Z,60.40
2023-05-06T04:18:18.999Z,60.19
2023-05-06T04:20:55.294Z,60.30
2023-05-06T04:23:23.432Z,60.54
2023-05-06T04:25:51.244Z,60.74
2023-05-06T04:28:21.849Z,60.81
2023-05-06T04:30:52.899Z,61.02
2023-05-06T04:33:24.361Z,61.15
2023-05-06T04:35:53.909Z,61.01
2023-05-06T04:38:25.764Z,61.14
2023-05-06T04:40:55.477Z,61.25
2023-05-06T04:43:23.703Z,61.15
2023-05-06T04:45:58.086Z,60.93
2023-05-06T04:48:31.037Z,60.89
2023-05-06T04:51:00.608Z,61.16
2023-05-06T04:53:29.173Z,61.17
2023-05-06T04:55:56.916Z,61.06
2023-05-06T04:58:25.043Z,61.16
2023-05-06T05:00:52.940Z,61.25
2023-05-06T05:03:21.093Z,61.22
2023-05-06T05:05:48.916Z,61.05
2023-05-06T05:08:20.293Z,60.62
2023-05-06T05:10:48.265Z,60.42
2023-05-06T05:13:21.604Z,59.94
2023-05-06T05:15:54.630Z,59.67
2023-05-06T05:18:24.394Z,59.58
2023-05-06T05:20:55.898Z,59.84
2023-05-06T05:23:24.136Z,59.91
2023-05-06T05:25:51.838Z,60.16
2023-05-06T05:28:19.933Z,60.14
2023-05-06T05:30:48.171Z,60.06
2023-05-06T05:33:16.279Z,59.83
2023-05-06T05:35:44.835Z,59.72
2023-05-06T05:38:14.394Z,59.13
2023-05-06T05:40:42.328Z,58.95
2023-05-06T05:43:10.633Z,57.83
2023-05-06T05:45:40.952Z,57.58
2023-05-06T05:48:11.034Z,56.83
2023-05-06T05:50:39.226Z,56.77
2023-05-06T05:53:07.698Z,55.65
2023-05-06T05:55:37.515Z,55.51
2023-05-06T05:58:06.636Z,55.19
2023-05-06T06:00:35.142Z,55.26
2023-05-06T06:03:11.528Z,54.91
2023-05-06T06:05:40.263Z,54.14
2023-05-06T06:08:08.779Z,53.71
2023-05-06T06:10:36.661Z,53.34
2023-05-06T06:13:11.219Z,52.77
2023-05-06T06:15:38.930Z,52.09
2023-05-06T06:18:08.800Z,51.76
2023-05-06T06:20:38.382Z,51.23
2023-05-06T06:23:06.339Z,50.56
2023-05-06T06:25:34.012Z,50.35
2023-05-06T06:28:01.979Z,50.06
2023-05-06T06:30:29.765Z,49.51
2023-05-06T06:32:58.984Z,48.73
2023-05-06T06:35:27.356Z,48.23
2023-05-06T06:37:55.507Z,47.85
2023-05-06T06:40:23.614Z,47.54
2023-05-06T06:42:51.691Z,46.84
2023-05-06T06:45:32.630Z,46.48
2023-05-06T06:48:00.728Z,46.17
2023-05-06T06:50:28.367Z,45.58
2023-05-06T06:52:56.363Z,44.44
2023-05-06T06:55:24.081Z,44.52
2023-05-06T06:57:52.098Z,43.93
2023-05-06T07:00:19.703Z,44.06
2023-05-06T07:02:48.697Z,43.42
2023-05-06T07:05:16.665Z,43.23
2023-05-06T07:07:44.618Z,43.55
2023-05-06T07:10:12.365Z,43.65
2023-05-06T07:12:40.332Z,43.77
2023-05-06T07:15:09.178Z,43.69
2023-05-06T07:17:37.477Z,43.27
2023-05-06T07:20:05.767Z,42.79
2023-05-06T07:22:33.779Z,42.77
2023-05-06T07:25:01.463Z,42.24
2023-05-06T07:27:30.886Z,41.80
2023-05-06T07:29:58.765Z,41.56
2023-05-06T07:32:26.963Z,41.43
2023-05-06T07:34:54.718Z,40.71
2023-05-06T07:37:22.707Z,40.10
2023-05-06T07:39:50.898Z,39.60
2023-05-06T07:42:18.795Z,39.25
2023-05-06T07:44:46.413Z,39.28
2023-05-06T07:47:26.216Z,39.01
2023-05-06T07:49:54.662Z,38.92
2023-05-06T07:52:23.569Z,39.06
2023-05-06T07:54:51.466Z,39.10
2023-05-06T07:57:19.356Z,38.33
2023-05-06T07:59:52.034Z,38.00
2023-05-06T08:02:20.073Z,37.49
2023-05-06T08:04:49.501Z,36.90
2023-05-06T08:07:19.141Z,36.62
2023-05-06T08:09:46.784Z,36.45
2023-05-06T08:12:15.887Z,36.32
2023-05-06T08:14:43.629Z,36.39
2023-05-06T08:17:13.238Z,35.93
2023-05-06T08:19:41.036Z,35.94
2023-05-06T08:22:09.014Z,35.96
2023-05-06T08:24:36.738Z,35.75
2023-05-06T08:27:05.015Z,35.82
2023-05-06T08:29:32.701Z,36.25
2023-05-06T08:32:01.580Z,36.21
2023-05-06T08:34:29.388Z,36.26
2023-05-06T08:36:57.337Z,36.07
2023-05-06T08:39:25.100Z,36.12
2023-05-06T08:41:54.434Z,36.05
2023-05-06T08:44:24.826Z,35.96
2023-05-06T08:46:53.018Z,35.43
2023-05-06T08:49:21.157Z,35.48
2023-05-06T08:51:52.474Z,35.43
2023-05-06T08:54:20.180Z,35.31
2023-05-06T08:56:53.995Z,35.55
2023-05-06T08:59:25.974Z,35.26
2023-05-06T09:01:54.016Z,35.45
2023-05-06T09:04:22.226Z,35.21
2023-05-06T09:06:50.406Z,35.31
2023-05-06T09:09:18.096Z,35.05
2023-05-06T09:11:46.071Z,34.80
2023-05-06T09:14:17.910Z,34.81
2023-05-06T09:16:49.523Z,34.90
2023-05-06T09:19:19.848Z,34.70
2023-05-06T09:21:50.373Z,34.32
2023-05-06T09:24:18.434Z,33.95
2023-05-06T09:26:47.361Z,34.26
2023-05-06T09:29:15.193Z,33.89
2023-05-06T09:31:47.792Z,33.93
2023-05-06T09:34:17.942Z,34.04
2023-05-06T09:36:46.007Z,34.01
2023-05-06T09:39:13.759Z,34.06
2023-05-06T09:41:42.566Z,33.93
2023-05-06T09:44:11.556Z,34.11
2023-05-06T09:46:41.356Z,34.14
2023-05-06T09:49:10.264Z,33.77
2023-05-06T09:51:38.921Z,33.46
2023-05-06T09:54:07.598Z,33.30
2023-05-06T09:56:36.793Z,33.21
2023-05-06T09:59:05.920Z,33.38
2023-05-06T10:01:37.215Z,33.44
2023-05-06T10:04:11.112Z,33.40
2023-05-06T10:06:43.026Z,33.43
2023-05-06T10:09:11.499Z,33.36
2023-05-06T10:11:40.549Z,33.43
2023-05-06T10:14:09.270Z,33.04
2023-05-06T10:16:40.462Z,33.13
2023-05-06T10:19:09.393Z,33.31
2023-05-06T10:21:45.231Z,33.17
2023-05-06T10:24:17.270Z,33.32
2023-05-06T10:26:48.900Z,33.55
2023-05-06T10:29:17.560Z,33.66
2023-05-06T10:31:52.591Z,34.08
2023-05-06T10:34:22.773Z,34.25
2023-05-06T10:36:57.991Z,34.69
2023-05-06T10:39:26.590Z,35.00
2023-05-06T10:41:54.714Z,35.20
2023-05-06T10:44:58.191Z,35.13
2023-05-06T10:47:27.023Z,35.01
2023-05-06T10:50:20.607Z,35.63
2023-05-06T10:52:55.420Z,35.71
2023-05-06T10:55:33.244Z,35.94
2023-05-06T10:58:04.364Z,36.16
2023-05-06T11:00:33.516Z,36.51
2023-05-06T11:03:11.118Z,36.35
2023-05-06T11:05:50.145Z,36.37
2023-05-06T11:08:26.108Z,36.05
2023-05-06T11:10:54.826Z,36.26
2023-05-06T11:13:26.657Z,36.61
2023-05-06T11:15:56.250Z,36.52
2023-05-06T11:18:27.937Z,36.48
2023-05-06T11:21:03.783Z,36.55
2023-05-06T11:23:46.997Z,37.31
2023-05-06T11:26:15.377Z,36.86
2023-05-06T11:28:45.409Z,36.58
2023-05-06T11:31:14.693Z,36.79
2023-05-06T11:33:55.153Z,36.55
2023-05-06T11:36:22.953Z,36.32
2023-05-06T11:38:52.940Z,36.33
2023-05-06T11:41:23.085Z,37.04
2023-05-06T11:43:52.696Z,37.29
2023-05-06T11:46:22.264Z,37.58
2023-05-06T11:48:50.849Z,38.03
2023-05-06T11:51:25.051Z,38.21
2023-05-06T11:54:15.619Z,38.32
2023-05-06T11:56:48.282Z,39.00
2023-05-06T11:59:18.523Z,39.30
2023-05-06T12:01:46.881Z,39.77
2023-05-06T12:04:14.908Z,40.27
2023-05-06T12:06:42.704Z,40.70
2023-05-06T12:09:13.598Z,41.04
2023-05-06T12:11:44.303Z,41.20
2023-05-06T12:14:13.307Z,41.53
2023-05-06T12:16:42.336Z,41.95
2023-05-06T12:19:10.965Z,42.65
2023-05-06T12:21:39.324Z,42.80
2023-05-06T12:24:07.582Z,43.83
2023-05-06T12:26:49.431Z,44.21
2023-05-06T12:29:18.102Z,45.20
2023-05-06T12:31:47.423Z,44.61
2023-05-06T12:34:17.920Z,45.71
2023-05-06T12:36:48.794Z,45.27
2023-05-06T12:39:17.635Z,45.82
2023-05-06T12:41:46.479Z,45.48
2023-05-06T12:44:38.339Z,46.86
2023-05-06T12:47:10.520Z,47.42
2023-05-06T12:49:47.225Z,48.02
2023-05-06T12:52:15.986Z,48.17
2023-05-06T12:54:44.382Z,48.93
2023-05-06T12:57:12.104Z,50.94
2023-05-06T12:59:40.968Z,53.26
2023-05-06T13:02:08.690Z,53.79
2023-05-06T13:04:36.698Z,55.12
2023-05-06T13:07:04.426Z,57.46
2023-05-06T13:09:32.785Z,57.95
2023-05-06T13:12:01.295Z,60.36
2023-05-06T13:14:29.287Z,61.99
2023-05-06T13:17:00.419Z,64.51
2023-05-06T13:19:32.945Z,66.97
2023-05-06T13:22:01.757Z,68.70
2023-05-06T13:24:30.805Z,69.56
2023-05-06T13:27:00.959Z,71.06
2023-05-06T13:29:29.823Z,72.72
2023-05-06T13:31:57.833Z,74.34
2023-05-06T13:34:26.140Z,75.16
2023-05-06T13:36:54.882Z,76.00
2023-05-06T13:39:23.504Z,77.31
2023-05-06T13:41:51.751Z,79.35
2023-05-06T13:44:20.742Z,81.27
2023-05-06T13:46:48.944Z,82.32
2023-05-06T13:49:17.044Z,83.48
2023-05-06T13:51:44.801Z,85.08
2023-05-06T13:54:12.792Z,85.78
2023-05-06T13:56:40.522Z,85.95
2023-05-06T13:59:10.064Z,86.78
2023-05-06T14:01:38.452Z,86.98
2023-05-06T14:04:06.533Z,87.74
2023-05-06T14:06:34.189Z,88.79
2023-05-06T14:09:02.122Z,89.89
2023-05-06T14:11:29.891Z,90.19
2023-05-06T14:13:57.913Z,90.97
2023-05-06T14:16:25.604Z,91.54
2023-05-06T14:18:53.669Z,92.96
2023-05-06T14:21:21.995Z,93.69
2023-05-06T14:23:49.945Z,93.66
2023-05-06T14:26:17.807Z,94.69
2023-05-06T14:28:45.774Z,95.65
2023-05-06T14:31:13.539Z,95.61
2023-05-06T14:33:41.603Z,95.89
2023-05-06T14:36:09.453Z,96.68
2023-05-06T14:38:37.519Z,96.79
2023-05-06T14:41:05.189Z,97.02
2023-05-06T14:43:33.169Z,97.83
2023-05-06T14:46:01.073Z,97.81
2023-05-06T14:48:29.097Z,98.15
2023-05-06T14:50:56.728Z,98.08
2023-05-06T14:53:24.670Z,97.97
2023-05-06T14:55:52.324Z,98.24
2023-05-06T14:58:20.257Z,98.25
2023-05-06T15:00:47.970Z,99.09
2023-05-06T15:03:15.965Z,99.14
2023-05-06T15:05:43.890Z,99.09
2023-05-06T15:08:11.819Z,98.79
2023-05-06T15:10:40.773Z,99.38
2023-05-06T15:13:09.033Z,99.54
2023-05-06T15:15:36.814Z,99.41
2023-05-06T15:18:05.039Z,99.40
2023-05-06T15:20:32.823Z,100.00
2023-05-06T15:23:00.819Z,100.00
2023-05-06T15:25:35.701Z,100.00
2023-05-06T15:28:05.613Z,100.00
2023-05-06T15:30:33.432Z,100.00
2023-05-06T15:33:02.853Z,100.00
2023-05-06T15:35:31.802Z,100.00
2023-05-06T15:38:00.158Z,100.00
2023-05-06T15:40:28.274Z,100.00
2023-05-06T15:42:56.828Z,100.00
2023-05-06T15:45:24.663Z,100.00
2023-05-06T15:47:54.146Z,100.00
2023-05-06T15:50:32.954Z,100.00
2023-05-06T15:53:02.860Z,100.00
2023-05-06T15:55:35.252Z,100.00
2023-05-06T15:58:11.671Z,100.00
2023-05-06T16:00:39.415Z,100.00
2023-05-06T16:03:10.886Z,100.00
2023-05-06T16:05:40.069Z,100.00
2023-05-06T16:08:08.200Z,100.00
2023-05-06T16:10:35.926Z,100.00
2023-05-06T16:13:03.903Z,100.00
2023-05-06T16:15:31.596Z,100.00
2023-05-06T16:17:59.719Z,100.00
2023-05-06T16:20:27.461Z,100.00
2023-05-06T16:22:55.438Z,100.00
2023-05-06T16:25:23.626Z,100.00
2023-05-06T16:27:51.786Z,100.00
2023-05-06T16:30:19.460Z,100.00
2023-05-06T16:32:47.818Z,100.00
2023-05-06T16:35:17.701Z,100.00
2023-05-06T16:37:46.182Z,100.00
2023-05-06T16:40:18.472Z,100.00
2023-05-06T16:42:47.128Z,100.00
2023-05-06T16:45:14.897Z,100.00
2023-05-06T16:47:44.607Z,100.00
2023-05-06T16:50:13.068Z,100.00
2023-05-06T16:52:41.522Z,100.00
2023-05-06T16:55:09.628Z,100.00
2023-05-06T16:57:37.674Z,100.00
2023-05-06T17:00:08.399Z,100.00
2023-05-06T17:02:36.547Z,100.00
2023-05-06T17:05:04.563Z,100.00
2023-05-06T17:07:32.529Z,100.00
2023-05-06T17:10:00.688Z,100.00
2023-05-06T17:12:28.768Z,100.00
2023-05-06T17:14:56.601Z,100.00
2023-05-06T17:17:28.520Z,100.00
2023-05-06T17:19:57.590Z,100.00
2023-05-06T17:22:26.477Z,100.00
2023-05-06T17:24:54.399Z,100.00
2023-05-06T17:27:22.414Z,100.00
2023-05-06T17:29:50.336Z,100.00
2023-05-06T17:32:19.887Z,100.00
2023-05-06T17:34:47.714Z,100.00
2023-05-06T17:37:15.984Z,100.00
2023-05-06T17:39:43.752Z,100.00
2023-05-06T17:42:11.786Z,100.00
2023-05-06T17:44:40.269Z,100.00
2023-05-06T17:47:08.812Z,100.00
2023-05-06T17:49:36.669Z,100.00
2023-05-06T17:52:04.868Z,100.00
2023-05-06T17:54:32.683Z,100.00
2023-05-06T17:57:03.385Z,100.00
2023-05-06T17:59:31.216Z,100.00
2023-05-06T18:02:00.395Z,100.00
2023-05-06T18:04:28.154Z,100.00
2023-05-06T18:06:57.094Z,100.00
2023-05-06T18:09:24.698Z,100.00
2023-05-06T18:11:52.715Z,100.00
2023-05-06T18:14:20.571Z,100.00
2023-05-06T18:16:48.509Z,100.00
2023-05-06T18:19:16.148Z,100.00
2023-05-06T18:21:45.946Z,100.00
2023-05-06T18:24:16.316Z,100.00
2023-05-06T18:26:46.059Z,100.00
2023-05-06T18:29:14.279Z,100.00
2023-05-06T18:31:42.614Z,100.00
2023-05-06T18:34:10.569Z,100.00
2023-05-06T18:36:38.875Z,100.00
2023-05-06T18:39:07.333Z,100.00
2023-05-06T18:41:35.702Z,100.00
2023-05-06T18:44:04.632Z,100.00
2023-05-06T18:46:32.827Z,100.00
2023-05-06T18:49:01.071Z,100.00
2023-05-06T18:51:29.108Z,100.00
2023-05-06T18:53:56.797Z,100.00
2023-05-06T18:56:24.713Z,100.00
2023-05-06T18:58:52.867Z,100.00
2023-05-06T19:01:21.168Z,100.00
2023-05-06T19:03:49.016Z,100.00
2023-05-06T19:06:17.104Z,100.00
2023-05-06T19:08:44.780Z,100.00
2023-05-06T19:11:16.942Z,100.00
2023-05-06T19:13:46.649Z,100.00
2023-05-06T19:16:14.914Z,100.00
2023-05-06T19:18:42.707Z,100.00
2023-05-06T19:21:11.878Z,100.00
2023-05-06T19:23:39.709Z,100.00
2023-05-06T19:26:10.962Z,100.00
2023-05-06T19:28:40.273Z,100.00
2023-05-06T19:31:10.296Z,100.00
2023-05-06T19:33:42.533Z,100.00
2023-05-06T19:36:11.070Z,100.00
2023-05-06T19:38:38.838Z,100.00
2023-05-06T19:41:08.421Z,100.00
2023-05-06T19:43:42.159Z,100.00
2023-05-06T19:46:11.022Z,100.00
2023-05-06T19:48:41.541Z,100.00
2023-05-06T19:51:09.575Z,100.00
2023-05-06T19:53:37.458Z,100.00
2023-05-06T19:56:12.664Z,100.00
2023-05-06T19:58:41.522Z,100.00
2023-05-06T20:01:09.941Z,100.00
2023-05-06T20:03:38.172Z,100.00
2023-05-06T20:06:06.931Z,100.00
2023-05-06T20:08:35.569Z,100.00
2023-05-06T20:11:03.752Z,100.00
2023-05-06T20:13:31.679Z,100.00
2023-05-06T20:15:59.814Z,100.00
2023-05-06T20:18:27.565Z,100.00
2023-05-06T20:20:56.307Z,100.00
2023-05-06T20:23:23.925Z,100.00
2023-05-06T20:25:52.011Z,100.00
2023-05-06T20:28:19.864Z,100.00
2023-05-06T20:30:48.898Z,100.00
2023-05-06T20:33:16.689Z,100.00
2023-05-06T20:35:44.662Z,100.00
2023-05-06T20:38:12.447Z,100.00
2023-05-06T20:40:40.681Z,100.00
2023-05-06T20:43:08.409Z,100.00
2023-05-06T20:45:36.406Z,100.00
2023-05-06T20:48:04.276Z,100.00
2023-05-06T20:50:32.286Z,100.00
2023-05-06T20:53:01.668Z,100.00
2023-05-06T20:55:29.640Z,100.00
2023-05-06T20:57:57.342Z,100.00
2023-05-06T21:00:25.466Z,100.00
2023-05-06T21:02:53.297Z,100.00
2023-05-06T21:05:21.389Z,100.00
2023-05-06T21:07:49.036Z,100.00
2023-05-06T21:10:17.063Z,100.00
2023-05-06T21:12:48.704Z,100.00
2023-05-06T21:15:17.340Z,100.00
2023-05-06T21:17:45.247Z,100.00
2023-05-06T21:20:13.561Z,100.00
2023-05-06T21:22:41.165Z,100.00
2023-05-06T21:25:09.826Z,100.00
2023-05-06T21:27:37.668Z,100.00
2023-05-06T21:30:06.492Z,100.00
2023-05-06T21:32:34.249Z,100.00
2023-05-06T21:35:03.300Z,100.00
2023-05-06T21:37:31.011Z,100.00
2023-05-06T21:40:00.108Z,100.00
2023-05-06T21:42:28.335Z,100.00
2023-05-06T21:44:56.348Z,100.00
2023-05-06T21:47:24.095Z,100.00
2023-05-06T21:49:52.044Z,100.00
2023-05-06T21:52:19.706Z,100.00
2023-05-06T21:54:47.787Z,100.00
2023-05-06T21:57:15.524Z,100.00
2023-05-06T21:59:43.449Z,100.00
2023-05-06T22:02:11.158Z,100.00
2023-05-06T22:04:39.086Z,100.00
2023-05-06T22:07:07.050Z,100.00
2023-05-06T22:09:34.944Z,100.00
2023-05-06T22:12:06.597Z,100.00
2023-05-06T22:14:40.888Z,100.00
2023-05-06T22:17:10.513Z,100.00
2023-05-06T22:19:39.046Z,100.00
2023-05-06T22:22:07.023Z,100.00
2023-05-06T22:24:35.123Z,100.00
2023-05-06T22:27:03.397Z,100.00
2023-05-06T22:29:31.398Z,100.00
2023-05-06T22:31:59.106Z,100.00
2023-05-06T22:34:27.293Z,100.00
2023-05-06T22:36:54.869Z,100.00
2023-05-06T22:39:22.904Z,100.00
2023-05-06T22:41:50.962Z,100.00
2023-05-06T22:44:18.920Z,100.00
2023-05-06T22:46:46.804Z,100.00
2023-05-06T22:49:15.990Z,100.00
2023-05-06T22:51:43.725Z,100.00
2023-05-06T22:54:11.821Z,100.00
2023-05-06T22:56:39.463Z,100.00
2023-05-06T22:59:07.462Z,100.00
2023-05-06T23:01:35.198Z,100.00
2023-05-06T23:04:03.454Z,100.00
2023-05-06T23:06:31.754Z,100.00
2023-05-06T23:08:59.814Z,100.00
2023-05-06T23:11:27.453Z,100.00
2023-05-06T23:13:55.372Z,100.00
2023-05-06T23:16:23.561Z,100.00
2023-05-06T23:18:51.551Z,100.00
2023-05-06T23:21:19.223Z,100.00
2023-05-06T23:23:47.121Z,100.00
2023-05-06T23:26:15.013Z,100.00
2023-05-06T23:28:42.958Z,100.00
2023-05-06T23:31:10.716Z,100.00
2023-05-06T23:33:38.696Z,100.00
2023-05-06T23:36:06.676Z,100.00
2023-05-06T23:38:34.585Z,100.00
2023-05-06T23:41:02.293Z,100.00
2023-05-06T23:43:30.768Z,100.00
2023-05-06T23:45:58.503Z,100.00
2023-05-06T23:48:26.458Z,100.00
2023-05-06T23:50:54.581Z,100.00
2023-05-06T23:53:22.806Z,100.00
2023-05-06T23:55:50.637Z,100.00
2023-05-06T23:58:18.582Z,100.00
